Time;durP1;ratioP1;P1;durP2;ratioP2;P2;SDS_P1;SDS_P2;PMS_P1;PMS_P2;Temp;Humidity;BMP_temperature;BMP_pressure;BME280_temperature;BME280_humidity;BME280_pressure;Samples;Min_cycle;Max_cycle;Signal;HPM_P1;HPM_P2
2022/12/04 00:01:22;;;;;;;0.60;0.60;;;;;;;;;;1792736;78;26224;-39
2022/12/04 00:03:50;;;;;;;2.87;0.70;;;;;;;;;;1823446;77;26218;-40
2022/12/04 00:06:19;;;;;;;0.60;0.60;;;;;;;;;;1824526;77;26729;-43
2022/12/04 00:08:47;;;;;;;0.60;0.60;;;;;;;;;;1823514;77;26358;-45
2022/12/04 00:11:16;;;;;;;0.62;0.60;;;;;;;;;;1824535;77;27118;-43
2022/12/04 00:13:43;;;;;;;0.60;0.60;;;;;;;;;;1824281;77;26233;-42
2022/12/04 00:16:11;;;;;;;0.62;0.62;;;;;;;;;;1822764;78;26823;-47
2022/12/04 00:18:39;;;;;;;0.70;0.70;;;;;;;;;;1820567;77;28194;-46
2022/12/04 00:21:07;;;;;;;0.60;0.60;;;;;;;;;;1827527;77;26771;-43
2022/12/04 00:23:35;;;;;;;0.70;0.70;;;;;;;;;;1819633;77;27021;-51
2022/12/04 00:26:04;;;;;;;0.60;0.60;;;;;;;;;;1823945;77;26261;-48
2022/12/04 00:28:31;;;;;;;0.80;0.80;;;;;;;;;;1818532;77;27032;-44
2022/12/04 00:30:59;;;;;;;0.68;0.68;;;;;;;;;;1824668;77;26206;-46
2022/12/04 00:33:26;;;;;;;0.60;0.60;;;;;;;;;;1824734;78;26351;-44
2022/12/04 00:35:57;;;;;;;0.70;0.70;;;;;;;;;;1824430;78;26704;-40
2022/12/04 00:38:24;;;;;;;0.70;0.70;;;;;;;;;;1823197;77;26382;-39
2022/12/04 00:40:52;;;;;;;0.60;0.60;;;;;;;;;;1818140;78;27160;-40
2022/12/04 00:43:19;;;;;;;0.80;0.80;;;;;;;;;;1807993;79;26230;-40
2022/12/04 00:45:47;;;;;;;0.70;0.70;;;;;;;;;;1810869;78;26799;-45
2022/12/04 00:48:14;;;;;;;0.70;0.70;;;;;;;;;;1803967;78;26296;-45
2022/12/04 00:50:41;;;;;;;0.75;0.75;;;;;;;;;;1807042;78;26231;-43
2022/12/04 00:53:09;;;;;;;0.80;0.80;;;;;;;;;;1801910;78;26282;-42
2022/12/04 00:55:39;;;;;;;0.80;0.80;;;;;;;;;;1800927;78;26214;-41
2022/12/04 00:58:06;;;;;;;0.72;0.70;;;;;;;;;;1805276;78;26297;-46
2022/12/04 01:00:37;;;;;;;0.70;0.70;;;;;;;;;;1804367;79;26250;-45
2022/12/04 01:03:06;;;;;;;0.90;0.78;;;;;;;;;;1803695;78;26213;-41
2022/12/04 01:05:34;;;;;;;0.72;0.72;;;;;;;;;;1803062;78;26777;-48
2022/12/04 01:08:02;;;;;;;0.70;0.70;;;;;;;;;;1759832;80;26667;-41
2022/12/04 01:10:29;;;;;;;0.80;0.80;;;;;;;;;;1798201;80;26195;-42
2022/12/04 01:12:56;;;;;;;0.80;0.80;;;;;;;;;;1769284;79;26301;-39
2022/12/04 01:15:23;;;;;;;0.75;0.75;;;;;;;;;;1802225;78;26231;-43
2022/12/04 01:17:51;;;;;;;0.88;0.88;;;;;;;;;;1804408;78;26316;-39
2022/12/04 01:20:19;;;;;;;0.68;0.68;;;;;;;;;;1803804;78;26227;-49
2022/12/04 01:22:46;;;;;;;0.80;0.80;;;;;;;;;;1806666;78;26576;-50
2022/12/04 01:25:13;;;;;;;0.80;0.80;;;;;;;;;;1805418;79;27082;-40
2022/12/04 01:27:40;;;;;;;0.70;0.70;;;;;;;;;;1802571;78;26667;-44
2022/12/04 01:30:08;;;;;;;0.80;0.80;;;;;;;;;;1801274;78;26695;-41
2022/12/04 01:32:35;;;;;;;0.70;0.70;;;;;;;;;;1804743;78;26238;-45
2022/12/04 01:35:03;;;;;;;0.70;0.70;;;;;;;;;;1800581;78;26305;-39
2022/12/04 01:37:30;;;;;;;0.72;0.72;;;;;;;;;;1800339;79;26244;-44
2022/12/04 01:39:58;;;;;;;0.88;0.88;;;;;;;;;;1763832;79;26843;-42
2022/12/04 01:42:25;;;;;;;0.80;0.80;;;;;;;;;;1831712;77;26204;-43
2022/12/04 01:45:10;;;;;;;0.80;0.80;;;;;;;;;;1861127;77;26283;-42
2022/12/04 01:47:38;;;;;;;0.80;0.80;;;;;;;;;;1838642;77;26290;-44
2022/12/04 01:50:05;;;;;;;0.70;0.70;;;;;;;;;;1815464;77;27042;-41
2022/12/04 01:52:33;;;;;;;0.70;0.70;;;;;;;;;;1815373;77;26821;-42
2022/12/04 01:55:00;;;;;;;0.70;0.70;;;;;;;;;;1832225;77;26302;-41
2022/12/04 01:57:29;;;;;;;0.70;0.70;;;;;;;;;;1825477;78;27119;-46
2022/12/04 01:59:58;;;;;;;0.72;0.72;;;;;;;;;;1832261;77;26678;-40
2022/12/04 02:02:35;;;;;;;0.60;0.60;;;;;;;;;;1821773;77;26714;-40
2022/12/04 02:05:04;;;;;;;0.78;0.78;;;;;;;;;;1814620;78;26286;-44
2022/12/04 02:07:32;;;;;;;0.80;0.80;;;;;;;;;;1804327;78;26335;-40
2022/12/04 02:10:05;;;;;;;0.78;0.78;;;;;;;;;;1755188;80;26586;-44
2022/12/04 02:12:46;;;;;;;0.53;0.53;;;;;;;;;;1829056;77;26621;-41
2022/12/04 02:15:15;;;;;;;0.72;0.72;;;;;;;;;;1833833;77;26240;-41
2022/12/04 02:17:47;;;;;;;0.78;0.78;;;;;;;;;;1828906;77;26204;-46
2022/12/04 02:20:21;;;;;;;0.80;0.80;;;;;;;;;;1828575;77;26677;-45
2022/12/04 02:23:05;;;;;;;0.72;0.72;;;;;;;;;;1824421;77;26320;-45
2022/12/04 02:25:49;;;;;;;0.65;0.65;;;;;;;;;;1826128;76;26324;-44
2022/12/04 02:28:27;;;;;;;0.70;0.70;;;;;;;;;;1828258;75;26650;-39
2022/12/04 02:30:55;;;;;;;0.70;0.70;;;;;;;;;;1828976;76;27057;-42
2022/12/04 02:33:30;;;;;;;0.80;0.80;;;;;;;;;;1832216;77;26231;-40
2022/12/04 02:36:04;;;;;;;0.80;0.80;;;;;;;;;;1793980;78;26228;-42
2022/12/04 02:38:33;;;;;;;0.80;0.80;;;;;;;;;;1776387;79;26191;-42
2022/12/04 02:41:08;;;;;;;0.82;0.82;;;;;;;;;;1783547;78;26334;-41
2022/12/04 02:43:37;;;;;;;0.82;0.82;;;;;;;;;;1785036;80;26278;-45
2022/12/04 02:46:09;;;;;;;0.80;0.80;;;;;;;;;;1784317;79;26224;-44
2022/12/04 02:48:37;;;;;;;0.80;0.80;;;;;;;;;;1797217;79;26915;-42
2022/12/04 02:51:06;;;;;;;0.60;0.60;;;;;;;;;;1788916;79;26723;-41
2022/12/04 02:53:35;;;;;;;0.80;0.80;;;;;;;;;;1784948;79;26191;-40
2022/12/04 02:56:04;;;;;;;0.70;0.70;;;;;;;;;;1782706;78;26715;-44
2022/12/04 02:58:32;;;;;;;0.90;0.90;;;;;;;;;;1783281;79;26769;-43
2022/12/04 03:01:01;;;;;;;0.78;0.78;;;;;;;;;;1784477;79;26263;-40
2022/12/04 03:03:30;;;;;;;0.88;0.80;;;;;;;;;;1785020;80;26304;-46
2022/12/04 03:05:58;;;;;;;0.70;0.70;;;;;;;;;;1783375;79;26821;-40
2022/12/04 03:08:27;;;;;;;0.80;0.80;;;;;;;;;;1783876;79;26786;-44
2022/12/04 03:10:56;;;;;;;0.78;0.78;;;;;;;;;;1779560;79;26262;-41
2022/12/04 03:13:25;;;;;;;0.70;0.70;;;;;;;;;;1783247;78;26309;-43
2022/12/04 03:16:00;;;;;;;0.72;0.72;;;;;;;;;;1784657;79;26180;-44
2022/12/04 03:18:28;;;;;;;0.70;0.70;;;;;;;;;;1791593;78;26723;-43
2022/12/04 03:21:00;;;;;;;0.78;0.78;;;;;;;;;;1786577;79;27091;-43
2022/12/04 03:23:29;;;;;;;1.95;0.75;;;;;;;;;;1784735;78;26242;-47
2022/12/04 03:25:58;;;;;;;0.80;0.80;;;;;;;;;;1794254;78;26289;-41
2022/12/04 03:28:27;;;;;;;0.93;0.93;;;;;;;;;;1793928;78;26273;-43
2022/12/04 03:30:56;;;;;;;0.70;0.70;;;;;;;;;;1754922;80;26300;-40
2022/12/04 03:33:24;;;;;;;0.70;0.70;;;;;;;;;;1815286;77;26306;-44
2022/12/04 03:35:53;;;;;;;0.68;0.68;;;;;;;;;;1827185;77;26215;-42
2022/12/04 03:38:34;;;;;;;0.80;0.80;;;;;;;;;;1824776;78;26213;-41
2022/12/04 03:41:15;;;;;;;0.70;0.70;;;;;;;;;;1829619;77;26250;-41
2022/12/04 03:43:47;;;;;;;0.65;0.65;;;;;;;;;;1810932;77;26288;-46
2022/12/04 03:46:15;;;;;;;0.70;0.70;;;;;;;;;;1827106;77;26687;-43
2022/12/04 03:49:00;;;;;;;0.90;0.90;;;;;;;;;;1824970;77;26234;-44
2022/12/04 03:51:44;;;;;;;0.65;0.65;;;;;;;;;;1797588;78;26238;-41
2022/12/04 03:54:13;;;;;;;0.80;0.80;;;;;;;;;;1797442;78;26639;-43
2022/12/04 03:56:45;;;;;;;0.68;0.68;;;;;;;;;;1809621;78;26632;-40
2022/12/04 03:59:13;;;;;;;0.70;0.70;;;;;;;;;;1812813;78;26262;-42
2022/12/04 04:01:45;;;;;;;0.62;0.62;;;;;;;;;;1761300;80;26312;-44
2022/12/04 04:04:14;;;;;;;0.70;0.70;;;;;;;;;;1796710;80;26283;-41
2022/12/04 04:06:46;;;;;;;0.70;0.70;;;;;;;;;;1768230;79;26291;-46
2022/12/04 04:09:14;;;;;;;0.70;0.70;;;;;;;;;;1795872;78;26222;-40
2022/12/04 04:11:55;;;;;;;0.70;0.70;;;;;;;;;;1798182;78;26874;-43
2022/12/04 04:25:28;;;;;;;0.70;0.70;;;;;;;;;;1823547;77;26589;-41
2022/12/04 04:27:57;;;;;;;0.60;0.60;;;;;;;;;;1824901;77;26198;-42
2022/12/04 04:30:24;;;;;;;0.70;0.70;;;;;;;;;;1828118;77;26274;-41
2022/12/04 04:32:59;;;;;;;0.70;0.70;;;;;;;;;;1821277;77;26281;-42
2022/12/04 04:35:34;;;;;;;0.70;0.70;;;;;;;;;;1822243;77;26272;-43
2022/12/04 04:38:06;;;;;;;0.62;0.62;;;;;;;;;;1822439;77;27419;-42
2022/12/04 04:40:47;;;;;;;0.62;0.62;;;;;;;;;;1824743;77;26703;-41
2022/12/04 04:43:16;;;;;;;0.60;0.60;;;;;;;;;;1821515;77;26722;-40
2022/12/04 04:45:45;;;;;;;0.70;0.70;;;;;;;;;;1813185;77;26238;-42
2022/12/04 04:48:20;;;;;;;0.68;0.68;;;;;;;;;;1813830;78;26665;-42
2022/12/04 04:50:47;;;;;;;0.70;0.70;;;;;;;;;;1813392;79;26316;-41
2022/12/04 04:53:19;;;;;;;0.70;0.70;;;;;;;;;;1814582;77;26268;-40
2022/12/04 04:55:47;;;;;;;0.70;0.70;;;;;;;;;;1812370;78;26218;-44
2022/12/04 04:58:16;;;;;;;0.60;0.60;;;;;;;;;;1813738;78;26745;-42
2022/12/04 05:00:45;;;;;;;0.60;0.60;;;;;;;;;;1805484;78;26578;-43
2022/12/04 05:03:12;;;;;;;0.50;0.50;;;;;;;;;;1809548;78;26675;-42
2022/12/04 05:05:39;;;;;;;0.70;0.70;;;;;;;;;;1813878;77;26625;-39
2022/12/04 05:08:06;;;;;;;0.65;0.65;;;;;;;;;;1810167;77;26280;-42
2022/12/04 05:10:34;;;;;;;0.62;0.62;;;;;;;;;;1812644;78;26229;-42
2022/12/04 05:13:01;;;;;;;0.60;0.60;;;;;;;;;;1813370;78;26289;-44
2022/12/04 05:15:28;;;;;;;0.80;0.80;;;;;;;;;;1813417;77;26244;-40
2022/12/04 05:17:55;;;;;;;0.72;0.72;;;;;;;;;;1820758;77;26218;-40
2022/12/04 05:20:23;;;;;;;0.62;0.62;;;;;;;;;;1815758;78;26786;-44
2022/12/04 05:22:50;;;;;;;0.70;0.70;;;;;;;;;;1813240;77;26207;-41
2022/12/04 05:25:17;;;;;;;0.90;0.90;;;;;;;;;;1813641;78;26262;-41
2022/12/04 05:27:44;;;;;;;0.80;0.80;;;;;;;;;;1813867;77;26296;-43
2022/12/04 05:30:12;;;;;;;0.70;0.70;;;;;;;;;;1806097;79;26195;-43
2022/12/04 05:32:39;;;;;;;0.68;0.68;;;;;;;;;;1812866;78;26289;-40
2022/12/04 05:35:07;;;;;;;0.80;0.80;;;;;;;;;;1813582;78;26222;-39
2022/12/04 05:37:37;;;;;;;0.70;0.70;;;;;;;;;;1799397;78;26317;-41
2022/12/04 05:40:05;;;;;;;0.60;0.60;;;;;;;;;;1756342;80;26744;-41
2022/12/04 05:42:32;;;;;;;0.70;0.70;;;;;;;;;;1820712;77;26260;-40
2022/12/04 05:45:00;;;;;;;0.57;0.57;;;;;;;;;;1797060;78;26211;-40
2022/12/04 05:47:27;;;;;;;0.68;0.68;;;;;;;;;;1792909;79;26771;-41
2022/12/04 05:49:54;;;;;;;0.62;0.62;;;;;;;;;;1831566;77;26237;-42
2022/12/04 05:52:22;;;;;;;0.65;0.65;;;;;;;;;;1829865;77;26303;-41
2022/12/04 05:54:49;;;;;;;0.80;0.80;;;;;;;;;;1799723;78;26186;-39
2022/12/04 05:57:16;;;;;;;0.70;0.70;;;;;;;;;;1830459;77;26331;-41
2022/12/04 05:59:43;;;;;;;0.75;0.60;;;;;;;;;;1811683;78;26575;-39
2022/12/04 06:02:11;;;;;;;0.70;0.70;;;;;;;;;;1829503;77;26725;-39
2022/12/04 06:04:38;;;;;;;0.60;0.60;;;;;;;;;;1845353;76;26672;-43
2022/12/04 06:07:05;;;;;;;0.70;0.70;;;;;;;;;;1845246;76;26818;-39
2022/12/04 06:09:33;;;;;;;0.70;0.70;;;;;;;;;;1844736;77;26204;-40
2022/12/04 06:12:00;;;;;;;0.60;0.60;;;;;;;;;;1843226;76;26263;-42
2022/12/04 06:14:27;;;;;;;0.70;0.70;;;;;;;;;;1841525;76;26656;-43
2022/12/04 06:16:54;;;;;;;0.70;0.70;;;;;;;;;;1830048;77;26236;-45
2022/12/04 06:19:22;;;;;;;0.60;0.60;;;;;;;;;;1827595;77;26244;-40
2022/12/04 06:21:51;;;;;;;0.62;0.62;;;;;;;;;;1831250;77;26229;-40
2022/12/04 06:24:22;;;;;;;0.80;0.80;;;;;;;;;;1830826;77;26689;-42
2022/12/04 06:26:50;;;;;;;0.70;0.70;;;;;;;;;;1830672;77;26650;-42
2022/12/04 06:29:17;;;;;;;0.55;0.55;;;;;;;;;;1839296;77;26213;-39
2022/12/04 06:31:46;;;;;;;0.70;0.70;;;;;;;;;;1830810;77;27085;-42
2022/12/04 06:34:13;;;;;;;0.68;0.68;;;;;;;;;;1823169;77;26288;-43
2022/12/04 06:36:40;;;;;;;0.60;0.60;;;;;;;;;;1845664;77;27005;-42
2022/12/04 06:39:09;;;;;;;0.70;0.70;;;;;;;;;;1853969;77;26775;-40
2022/12/04 06:41:36;;;;;;;0.80;0.80;;;;;;;;;;1825068;77;26236;-44
2022/12/04 06:44:03;;;;;;;0.65;0.65;;;;;;;;;;1798921;78;26327;-45
2022/12/04 06:46:32;;;;;;;0.70;0.70;;;;;;;;;;1756115;80;26301;-46
2022/12/04 06:49:00;;;;;;;0.60;0.60;;;;;;;;;;1820123;77;26718;-44
2022/12/04 06:51:31;;;;;;;0.70;0.70;;;;;;;;;;1823885;77;26284;-45
2022/12/04 06:53:59;;;;;;;0.60;0.60;;;;;;;;;;1823564;77;26213;-46
2022/12/04 06:56:28;;;;;;;0.80;0.80;;;;;;;;;;1822558;77;26198;-45
2022/12/04 06:58:56;;;;;;;1.52;1.10;;;;;;;;;;1822455;77;26288;-43
2022/12/04 07:01:25;;;;;;;1.40;1.40;;;;;;;;;;1817861;77;26332;-45
2022/12/04 07:03:54;;;;;;;2.02;1.92;;;;;;;;;;1823718;77;26276;-42
2022/12/04 07:06:22;;;;;;;2.50;2.40;;;;;;;;;;1827078;77;27305;-40
2022/12/04 07:08:51;;;;;;;2.70;2.60;;;;;;;;;;1824609;77;26175;-39
2022/12/04 07:11:20;;;;;;;3.52;3.33;;;;;;;;;;1804583;77;26317;-43
2022/12/04 07:13:47;;;;;;;3.70;3.50;;;;;;;;;;1831285;77;26242;-43
2022/12/04 07:16:16;;;;;;;4.30;4.00;;;;;;;;;;1835785;77;26642;-41
2022/12/04 07:18:44;;;;;;;4.20;4.00;;;;;;;;;;1833957;77;26265;-43
2022/12/04 07:21:12;;;;;;;4.35;4.05;;;;;;;;;;1828171;77;26647;-44
2022/12/04 07:23:40;;;;;;;4.15;3.85;;;;;;;;;;1831651;77;26206;-39
2022/12/04 07:26:11;;;;;;;4.20;3.90;;;;;;;;;;1825531;77;26203;-50
2022/12/04 07:28:38;;;;;;;4.50;4.20;;;;;;;;;;1823755;77;26273;-43
2022/12/04 07:31:06;;;;;;;4.00;3.70;;;;;;;;;;1821668;77;26250;-41
2022/12/04 07:33:34;;;;;;;3.77;3.50;;;;;;;;;;1824849;77;26280;-43
2022/12/04 07:36:02;;;;;;;3.58;3.37;;;;;;;;;;1823664;77;26275;-43
2022/12/04 07:38:31;;;;;;;3.25;3.02;;;;;;;;;;1823737;77;26229;-41
2022/12/04 07:40:58;;;;;;;3.00;2.42;;;;;;;;;;1817046;77;26278;-46
2022/12/04 07:43:26;;;;;;;3.00;2.40;;;;;;;;;;1815253;77;26254;-49
2022/12/04 07:45:53;;;;;;;2.65;2.50;;;;;;;;;;1815879;77;26286;-39
2022/12/04 07:48:21;;;;;;;3.30;3.00;;;;;;;;;;1814362;78;26313;-41
2022/12/04 07:50:48;;;;;;;3.47;3.17;;;;;;;;;;1813898;79;26245;-43
2022/12/04 07:53:15;;;;;;;4.62;3.72;;;;;;;;;;1815423;79;26297;-39
2022/12/04 07:55:42;;;;;;;5.22;4.00;;;;;;;;;;1816474;78;26265;-44
2022/12/04 07:58:10;;;;;;;8.23;4.20;;;;;;;;;;1808229;78;26206;-40
2022/12/04 08:00:37;;;;;;;7.45;4.60;;;;;;;;;;1813493;77;26210;-48
2022/12/04 08:03:04;;;;;;;7.20;4.62;;;;;;;;;;1815304;78;26187;-40
2022/12/04 08:05:31;;;;;;;5.58;4.50;;;;;;;;;;1815558;78;26987;-41
2022/12/04 08:07:59;;;;;;;11.10;4.60;;;;;;;;;;1816167;77;26285;-42
2022/12/04 08:10:26;;;;;;;7.03;4.55;;;;;;;;;;1800689;77;26288;-44
2022/12/04 08:12:53;;;;;;;8.45;4.40;;;;;;;;;;1810753;79;26231;-41
2022/12/04 08:15:20;;;;;;;7.15;4.70;;;;;;;;;;1815780;77;26308;-39
2022/12/04 08:17:48;;;;;;;4.80;3.62;;;;;;;;;;1806927;79;26314;-40
2022/12/04 08:20:15;;;;;;;6.72;3.87;;;;;;;;;;1816097;77;26324;-46
2022/12/04 08:22:42;;;;;;;6.30;3.17;;;;;;;;;;1814902;78;26194;-41
2022/12/04 08:25:10;;;;;;;5.12;3.42;;;;;;;;;;1815837;78;26285;-42
2022/12/04 08:27:37;;;;;;;6.25;3.20;;;;;;;;;;1813468;79;26354;-51
2022/12/04 08:30:05;;;;;;;4.10;2.98;;;;;;;;;;1808427;77;27005;-44
2022/12/04 08:32:33;;;;;;;4.05;3.10;;;;;;;;;;1805500;77;26391;-45
2022/12/04 08:35:00;;;;;;;3.77;2.77;;;;;;;;;;1808311;79;26245;-42
2022/12/04 08:37:27;;;;;;;3.42;2.85;;;;;;;;;;1810583;79;26202;-49
2022/12/04 08:39:54;;;;;;;3.30;2.77;;;;;;;;;;1831300;78;26204;-44
2022/12/04 08:42:22;;;;;;;4.58;2.60;;;;;;;;;;1821435;78;26836;-39
2022/12/04 08:44:49;;;;;;;3.45;2.52;;;;;;;;;;1834942;77;26271;-45
2022/12/04 08:47:16;;;;;;;2.62;2.42;;;;;;;;;;1824320;77;26230;-39
2022/12/04 08:49:44;;;;;;;2.47;2.27;;;;;;;;;;1824381;78;26303;-44
2022/12/04 08:52:11;;;;;;;2.45;2.00;;;;;;;;;;1823685;78;26226;-43
2022/12/04 08:54:38;;;;;;;2.50;2.17;;;;;;;;;;1829681;77;26211;-42
2022/12/04 08:57:05;;;;;;;3.72;1.80;;;;;;;;;;1830859;77;26307;-45
2022/12/04 08:59:33;;;;;;;2.80;1.90;;;;;;;;;;1806341;77;26174;-39
2022/12/04 09:02:00;;;;;;;2.83;2.00;;;;;;;;;;1829848;77;26300;-41
2022/12/04 09:04:27;;;;;;;1.98;1.75;;;;;;;;;;1824668;78;26210;-42
2022/12/04 09:06:54;;;;;;;2.00;1.90;;;;;;;;;;1819972;77;26325;-42
2022/12/04 09:09:22;;;;;;;1.62;1.52;;;;;;;;;;1805526;77;26654;-42
2022/12/04 09:11:49;;;;;;;1.57;1.52;;;;;;;;;;1824240;77;26756;-40
2022/12/04 09:14:18;;;;;;;1.42;1.40;;;;;;;;;;1824170;77;27051;-53
2022/12/04 09:16:45;;;;;;;1.57;1.47;;;;;;;;;;1826220;77;26824;-41
2022/12/04 09:19:12;;;;;;;1.40;1.30;;;;;;;;;;1829030;77;26750;-41
2022/12/04 09:21:40;;;;;;;1.55;1.42;;;;;;;;;;1824380;77;26225;-42
2022/12/04 09:24:07;;;;;;;1.47;1.40;;;;;;;;;;1824047;77;26585;-43
2022/12/04 09:26:34;;;;;;;1.42;1.32;;;;;;;;;;1822679;77;26749;-40
2022/12/04 09:29:03;;;;;;;1.37;1.27;;;;;;;;;;1823020;77;26289;-43
2022/12/04 09:31:31;;;;;;;1.30;1.30;;;;;;;;;;1827489;77;27206;-43
2022/12/04 09:33:59;;;;;;;1.10;1.10;;;;;;;;;;1824728;77;26264;-40
2022/12/04 09:36:26;;;;;;;1.30;1.30;;;;;;;;;;1824563;77;26655;-42
2022/12/04 09:38:54;;;;;;;2.02;1.20;;;;;;;;;;1823933;77;26202;-44
2022/12/04 09:41:35;;;;;;;1.10;1.10;;;;;;;;;;1822640;77;26706;-42
2022/12/04 09:44:09;;;;;;;1.20;1.20;;;;;;;;;;1827344;77;26527;-42
2022/12/04 09:46:41;;;;;;;1.12;1.12;;;;;;;;;;1818442;78;26249;-40
2022/12/04 09:49:13;;;;;;;1.30;1.30;;;;;;;;;;1789841;78;26194;-41
2022/12/04 09:51:40;;;;;;;1.50;1.10;;;;;;;;;;1815742;77;26236;-44
2022/12/04 09:54:09;;;;;;;1.10;1.10;;;;;;;;;;1834990;77;26336;-39
2022/12/04 09:56:36;;;;;;;1.00;1.00;;;;;;;;;;1780583;79;26194;-40
2022/12/04 09:59:08;;;;;;;1.15;1.15;;;;;;;;;;1812841;79;26247;-41
2022/12/04 10:01:42;;;;;;;1.02;1.02;;;;;;;;;;1779951;79;26338;-43
2022/12/04 10:04:11;;;;;;;1.57;1.10;;;;;;;;;;1833654;78;26213;-39
2022/12/04 10:06:40;;;;;;;0.90;0.90;;;;;;;;;;1854462;77;26193;-42
2022/12/04 10:09:09;;;;;;;1.00;1.00;;;;;;;;;;1836582;77;26216;-46
2022/12/04 10:11:40;;;;;;;1.20;1.10;;;;;;;;;;1835773;77;26680;-41
2022/12/04 10:14:25;;;;;;;1.00;1.00;;;;;;;;;;1835347;77;26224;-40
2022/12/04 10:17:09;;;;;;;1.27;1.27;;;;;;;;;;1817191;78;26241;-39
2022/12/04 10:19:40;;;;;;;1.10;1.10;;;;;;;;;;1790913;79;26231;-41
2022/12/04 10:22:24;;;;;;;1.10;1.10;;;;;;;;;;1820987;77;26879;-39
2022/12/04 10:24:53;;;;;;;1.10;1.10;;;;;;;;;;1781175;79;26241;-41
2022/12/04 10:27:21;;;;;;;1.00;1.00;;;;;;;;;;1788334;79;26246;-41
2022/12/04 10:29:50;;;;;;;1.20;1.20;;;;;;;;;;1838659;78;26324;-39
2022/12/04 10:32:25;;;;;;;1.00;1.00;;;;;;;;;;1841605;76;26233;-43
2022/12/04 10:34:54;;;;;;;1.10;1.10;;;;;;;;;;1826476;76;26334;-46
2022/12/04 10:37:22;;;;;;;1.10;1.10;;;;;;;;;;1852097;76;26297;-53
2022/12/04 10:39:56;;;;;;;1.00;1.00;;;;;;;;;;1819817;77;26233;-43
2022/12/04 10:42:28;;;;;;;1.02;1.02;;;;;;;;;;1788772;79;26247;-40
2022/12/04 10:44:55;;;;;;;0.95;0.95;;;;;;;;;;1835115;76;26378;-45
2022/12/04 10:47:23;;;;;;;1.12;1.12;;;;;;;;;;1841589;76;26302;-41
2022/12/04 10:49:58;;;;;;;1.00;1.00;;;;;;;;;;1839414;76;26304;-42
2022/12/04 10:52:26;;;;;;;0.90;0.90;;;;;;;;;;1839546;76;26342;-46
2022/12/04 10:54:55;;;;;;;0.90;0.90;;;;;;;;;;1841581;76;26281;-39
2022/12/04 10:57:22;;;;;;;1.10;1.10;;;;;;;;;;1841027;76;26203;-42
2022/12/04 10:59:54;;;;;;;0.90;0.90;;;;;;;;;;1841564;77;26328;-43
2022/12/04 11:02:23;;;;;;;1.10;1.10;;;;;;;;;;1828569;76;26300;-44
2022/12/04 11:04:54;;;;;;;0.90;0.90;;;;;;;;;;1841444;78;26219;-41
2022/12/04 11:07:23;;;;;;;1.00;1.00;;;;;;;;;;1841343;76;26795;-43
2022/12/04 11:09:55;;;;;;;0.80;0.80;;;;;;;;;;1841629;78;26740;-41
2022/12/04 11:12:23;;;;;;;1.00;1.00;;;;;;;;;;1830426;77;26305;-40
2022/12/04 11:15:03;;;;;;;1.00;1.00;;;;;;;;;;1839540;77;26993;-42
2022/12/04 11:17:30;;;;;;;1.10;1.10;;;;;;;;;;1839005;76;26290;-42
2022/12/04 11:19:59;;;;;;;1.07;1.07;;;;;;;;;;1850882;76;26200;-39
2022/12/04 11:22:26;;;;;;;1.00;1.00;;;;;;;;;;1841100;76;26272;-41
2022/12/04 11:24:55;;;;;;;1.10;1.10;;;;;;;;;;1842008;76;26259;-39
2022/12/04 11:27:23;;;;;;;0.80;0.80;;;;;;;;;;1841899;77;26212;-44
2022/12/04 11:29:51;;;;;;;1.00;1.00;;;;;;;;;;1841408;77;26230;-40
2022/12/04 11:32:20;;;;;;;1.10;1.10;;;;;;;;;;1830338;77;26617;-40
2022/12/04 11:34:50;;;;;;;1.00;1.00;;;;;;;;;;1841646;76;26285;-38
2022/12/04 11:37:21;;;;;;;1.10;1.10;;;;;;;;;;1848938;76;26296;-47
2022/12/04 11:39:49;;;;;;;1.07;1.07;;;;;;;;;;1836271;76;26213;-40
2022/12/04 11:42:18;;;;;;;1.00;1.00;;;;;;;;;;1848176;76;26227;-41
2022/12/04 11:44:52;;;;;;;1.10;1.10;;;;;;;;;;1836735;77;26277;-44
2022/12/04 11:47:21;;;;;;;1.00;1.00;;;;;;;;;;1824561;77;26292;-41
2022/12/04 11:50:02;;;;;;;1.15;1.15;;;;;;;;;;1825838;77;26664;-42
2022/12/04 11:52:39;;;;;;;1.07;1.07;;;;;;;;;;1781001;77;26242;-41
2022/12/04 11:55:14;;;;;;;0.90;0.90;;;;;;;;;;1823771;77;26288;-43
2022/12/04 11:57:49;;;;;;;1.00;1.00;;;;;;;;;;1822272;77;26311;-38
2022/12/04 12:00:17;;;;;;;1.00;1.00;;;;;;;;;;1823408;77;26322;-39
2022/12/04 12:02:52;;;;;;;0.93;0.93;;;;;;;;;;1823790;77;26205;-43
2022/12/04 12:05:38;;;;;;;0.82;0.82;;;;;;;;;;1816463;78;26237;-40
2022/12/04 12:08:23;;;;;;;1.10;1.10;;;;;;;;;;1809106;77;26638;-40
2022/12/04 12:10:54;;;;;;;1.02;1.02;;;;;;;;;;1836886;77;26203;-41
2022/12/04 12:13:23;;;;;;;0.98;0.98;;;;;;;;;;1824715;78;26284;-38
2022/12/04 12:15:52;;;;;;;1.00;1.00;;;;;;;;;;1839696;77;26213;-38
2022/12/04 12:18:21;;;;;;;0.90;0.90;;;;;;;;;;1836750;77;26174;-40
2022/12/04 12:20:50;;;;;;;1.00;1.00;;;;;;;;;;1830198;77;26304;-39
2022/12/04 12:23:24;;;;;;;0.93;0.93;;;;;;;;;;1821983;77;26973;-41
2022/12/04 12:25:53;;;;;;;1.00;1.00;;;;;;;;;;1822867;77;26254;-38
2022/12/04 12:28:22;;;;;;;0.90;0.90;;;;;;;;;;1822872;77;26238;-40
2022/12/04 12:30:51;;;;;;;1.00;1.00;;;;;;;;;;1797595;78;26245;-39
2022/12/04 12:33:22;;;;;;;1.02;1.02;;;;;;;;;;1776627;79;26667;-40
2022/12/04 12:35:54;;;;;;;0.90;0.90;;;;;;;;;;1804638;79;27014;-41
2022/12/04 12:38:23;;;;;;;1.00;1.00;;;;;;;;;;1795529;80;26182;-40
2022/12/04 12:40:52;;;;;;;1.05;1.05;;;;;;;;;;1832810;77;26217;-41
2022/12/04 12:43:24;;;;;;;1.00;1.00;;;;;;;;;;1833976;77;26310;-40
2022/12/04 12:45:55;;;;;;;0.90;0.90;;;;;;;;;;1815432;77;26274;-41
2022/12/04 12:48:30;;;;;;;1.00;1.00;;;;;;;;;;1800984;78;26284;-39
2022/12/04 12:50:59;;;;;;;0.88;0.88;;;;;;;;;;1799311;78;26282;-37
2022/12/04 12:53:27;;;;;;;0.70;0.70;;;;;;;;;;1800400;77;26260;-45
2022/12/04 12:55:57;;;;;;;0.90;0.90;;;;;;;;;;1799933;78;26227;-38
2022/12/04 12:58:31;;;;;;;0.90;0.90;;;;;;;;;;1802693;78;26220;-42
2022/12/04 13:01:18;;;;;;;0.90;0.90;;;;;;;;;;1798136;78;26781;-37
2022/12/04 13:04:05;;;;;;;0.82;0.82;;;;;;;;;;1796873;78;26760;-44
2022/12/04 13:06:36;;;;;;;0.88;0.88;;;;;;;;;;1799130;78;26266;-43
2022/12/04 13:09:11;;;;;;;0.85;0.85;;;;;;;;;;1804046;78;27157;-43
2022/12/04 13:11:38;;;;;;;1.02;1.02;;;;;;;;;;1788153;78;26293;-46
2022/12/04 13:14:06;;;;;;;0.82;0.82;;;;;;;;;;1785953;79;26243;-38
2022/12/04 13:16:34;;;;;;;0.80;0.80;;;;;;;;;;1797210;78;26292;-39
2022/12/04 13:19:03;;;;;;;0.80;0.80;;;;;;;;;;1807290;78;26260;-43
2022/12/04 13:21:35;;;;;;;0.90;0.90;;;;;;;;;;1801651;78;26236;-38
2022/12/04 13:24:10;;;;;;;0.70;0.70;;;;;;;;;;1799208;79;26282;-38
2022/12/04 13:26:55;;;;;;;0.80;0.80;;;;;;;;;;1800320;78;26305;-41
2022/12/04 13:29:36;;;;;;;0.80;0.80;;;;;;;;;;1800606;80;26657;-39
2022/12/04 13:32:04;;;;;;;0.80;0.80;;;;;;;;;;1792446;78;26314;-44
2022/12/04 13:34:39;;;;;;;0.72;0.72;;;;;;;;;;1799057;78;26622;-43
2022/12/04 13:37:08;;;;;;;0.68;0.68;;;;;;;;;;1798938;80;27007;-39
2022/12/04 13:39:36;;;;;;;0.90;0.90;;;;;;;;;;1800577;79;26318;-42
2022/12/04 13:42:05;;;;;;;0.80;0.80;;;;;;;;;;1799007;78;26243;-43
2022/12/04 13:44:33;;;;;;;0.80;0.80;;;;;;;;;;1767893;80;26729;-43
2022/12/04 13:47:02;;;;;;;0.90;0.90;;;;;;;;;;1795864;80;26233;-40
2022/12/04 13:49:31;;;;;;;0.90;0.90;;;;;;;;;;1799866;79;26313;-39
2022/12/04 13:51:59;;;;;;;0.72;0.72;;;;;;;;;;1805850;78;26214;-39
2022/12/04 13:54:34;;;;;;;0.72;0.72;;;;;;;;;;1806437;78;26328;-38
2022/12/04 13:57:11;;;;;;;0.80;0.80;;;;;;;;;;1805305;78;26295;-41
2022/12/04 13:59:39;;;;;;;0.78;0.78;;;;;;;;;;1775320;79;26252;-40
2022/12/04 14:02:20;;;;;;;0.72;0.72;;;;;;;;;;1837413;77;26910;-43
2022/12/04 14:05:01;;;;;;;0.78;0.78;;;;;;;;;;1816133;77;26247;-41
2022/12/04 14:07:30;;;;;;;0.80;0.80;;;;;;;;;;1837450;77;26655;-40
2022/12/04 14:09:59;;;;;;;0.80;0.80;;;;;;;;;;1846961;77;26729;-41
2022/12/04 14:12:29;;;;;;;0.70;0.70;;;;;;;;;;1836706;77;26218;-40
2022/12/04 14:14:57;;;;;;;0.80;0.80;;;;;;;;;;1801316;78;26389;-40
2022/12/04 14:17:29;;;;;;;0.80;0.80;;;;;;;;;;1779353;79;26258;-40
2022/12/04 14:20:04;;;;;;;0.80;0.80;;;;;;;;;;1820663;77;26610;-37
2022/12/04 14:22:39;;;;;;;0.80;0.80;;;;;;;;;;1831190;77;26733;-44
2022/12/04 14:25:07;;;;;;;0.80;0.80;;;;;;;;;;1830897;77;26221;-41
2022/12/04 14:27:42;;;;;;;0.78;0.78;;;;;;;;;;1820882;77;26608;-42
2022/12/04 14:30:17;;;;;;;0.60;0.60;;;;;;;;;;1819472;77;26638;-42
2022/12/04 14:32:46;;;;;;;0.70;0.70;;;;;;;;;;1833026;77;26283;-38
2022/12/04 14:35:15;;;;;;;0.70;0.70;;;;;;;;;;1829728;78;26289;-40
2022/12/04 14:37:43;;;;;;;0.65;0.65;;;;;;;;;;1831127;77;26263;-41
2022/12/04 14:40:30;;;;;;;0.80;0.80;;;;;;;;;;1843465;77;26220;-39
2022/12/04 14:42:58;;;;;;;0.80;0.80;;;;;;;;;;1828570;77;26300;-42
2022/12/04 14:45:29;;;;;;;0.72;0.72;;;;;;;;;;1827096;77;26723;-40
2022/12/04 14:48:04;;;;;;;0.72;0.72;;;;;;;;;;1838325;77;26299;-40
2022/12/04 14:50:39;;;;;;;0.68;0.68;;;;;;;;;;1823894;78;26219;-44
2022/12/04 14:53:16;;;;;;;0.93;0.93;;;;;;;;;;1799867;78;26382;-40
2022/12/04 14:55:54;;;;;;;0.80;0.80;;;;;;;;;;1821097;77;26302;-41
2022/12/04 14:58:31;;;;;;;0.68;0.68;;;;;;;;;;1826832;77;26726;-41
2022/12/04 15:01:00;;;;;;;0.70;0.70;;;;;;;;;;1830247;77;26224;-40
2022/12/04 15:03:29;;;;;;;0.70;0.70;;;;;;;;;;1827559;78;26725;-39
2022/12/04 15:06:03;;;;;;;0.80;0.80;;;;;;;;;;1839104;77;27072;-38
2022/12/04 15:08:31;;;;;;;0.90;0.90;;;;;;;;;;1837632;77;26278;-41
2022/12/04 15:13:43;;;;;;;0.90;0.90;;;;;;;;;;1830558;77;26291;-37